EJM110 KSYR-KHEF
Flight info
| Callsign | EJM110 |
|---|---|
| Flight time | 0h 59m |
| Altitude | 40000 |
| Route | SYR PTAKI STUBN HGR |
| Aircraft | CL60/M-SBDE1E2E3FGHIJ1J4J5J7M3RWXYZ/LB1V1D1 |
Departure
| Time | 2026-05-08 00:51 |
|---|---|
| Airport | Syracuse Hancock International Airport (KSYR) |
Arrival
| Time | 2026-05-08 01:50 |
|---|---|
| Airport | Manassas Regional Airport/Harry P. Davis Field (KHEF) |
| Time | Latitude | Longitude | Altitude | Speed | Heading |
|---|---|---|---|---|---|
| 2026-05-08 00:07 | 43.11175 | -76.13062 | 424 ft | 0 kts | 48° |
| 2026-05-08 00:44 | 43.11175 | -76.13041 | 423 ft | 6 kts | 141° |
| 2026-05-08 00:44 | 43.11116 | -76.13066 | 423 ft | 11 kts | 207° |
| 2026-05-08 00:45 | 43.11034 | -76.13049 | 423 ft | 14 kts | 137° |
| 2026-05-08 00:45 | 43.10949 | -76.12947 | 423 ft | 15 kts | 137° |
| 2026-05-08 00:45 | 43.10936 | -76.12826 | 423 ft | 14 kts | 88° |
| 2026-05-08 00:45 | 43.10942 | -76.12653 | 423 ft | 20 kts | 87° |
| 2026-05-08 00:46 | 43.10947 | -76.12457 | 423 ft | 19 kts | 88° |
| 2026-05-08 00:46 | 43.10955 | -76.12253 | 423 ft | 22 kts | 86° |
| 2026-05-08 00:46 | 43.10962 | -76.12037 | 423 ft | 17 kts | 87° |
| 2026-05-08 00:46 | 43.10968 | -76.11857 | 423 ft | 20 kts | 88° |
| 2026-05-08 00:47 | 43.10974 | -76.11657 | 423 ft | 16 kts | 87° |
| 2026-05-08 00:47 | 43.10980 | -76.11485 | 423 ft | 19 kts | 88° |
| 2026-05-08 00:47 | 43.10985 | -76.11331 | 423 ft | 16 kts | 88° |
| 2026-05-08 00:47 | 43.10990 | -76.11173 | 423 ft | 17 kts | 88° |
| 2026-05-08 00:48 | 43.10996 | -76.10990 | 423 ft | 20 kts | 87° |
| 2026-05-08 00:48 | 43.11002 | -76.10789 | 423 ft | 20 kts | 88° |
| 2026-05-08 00:48 | 43.11010 | -76.10584 | 423 ft | 19 kts | 88° |
| 2026-05-08 00:48 | 43.11015 | -76.10422 | 423 ft | 18 kts | 87° |
| 2026-05-08 00:49 | 43.11023 | -76.10228 | 423 ft | 21 kts | 87° |
| 2026-05-08 00:49 | 43.11028 | -76.10017 | 423 ft | 17 kts | 87° |
| 2026-05-08 00:49 | 43.11034 | -76.09858 | 423 ft | 17 kts | 87° |
| 2026-05-08 00:49 | 43.11040 | -76.09680 | 423 ft | 19 kts | 87° |
| 2026-05-08 00:50 | 43.11046 | -76.09498 | 423 ft | 20 kts | 87° |
| 2026-05-08 00:50 | 43.11051 | -76.09331 | 423 ft | 12 kts | 92° |
| 2026-05-08 00:50 | 43.11008 | -76.09265 | 423 ft | 10 kts | 177° |
| 2026-05-08 00:50 | 43.10931 | -76.09287 | 423 ft | 11 kts | 238° |
| 2026-05-08 00:51 | 43.10926 | -76.09325 | 423 ft | 1 kts | 270° |
| 2026-05-08 00:51 | 43.10914 | -76.09740 | 423 ft | 97 kts | 266° |
| 2026-05-08 00:51 | 43.10869 | -76.11086 | 548 ft | 172 kts | 268° |
| 2026-05-08 00:51 | 43.10818 | -76.12869 | 1264 ft | 202 kts | 269° |
| 2026-05-08 00:52 | 43.10526 | -76.14722 | 2360 ft | 213 kts | 245° |
| 2026-05-08 00:52 | 43.09397 | -76.16232 | 3130 ft | 240 kts | 209° |
| 2026-05-08 00:52 | 43.07727 | -76.16626 | 3809 ft | 255 kts | 176° |
| 2026-05-08 00:52 | 43.05943 | -76.16128 | 4494 ft | 265 kts | 169° |
| 2026-05-08 00:53 | 43.04163 | -76.15506 | 5169 ft | 267 kts | 168° |
| 2026-05-08 00:53 | 43.02374 | -76.14809 | 5826 ft | 273 kts | 160° |
| 2026-05-08 00:53 | 43.00678 | -76.13389 | 6816 ft | 296 kts | 147° |
| 2026-05-08 00:53 | 42.99036 | -76.11762 | 8388 ft | 297 kts | 148° |
| 2026-05-08 00:54 | 42.97375 | -76.10123 | 9929 ft | 298 kts | 148° |
| 2026-05-08 00:54 | 42.95892 | -76.08680 | 11136 ft | 302 kts | 149° |
| 2026-05-08 00:54 | 42.94646 | -76.07494 | 12089 ft | 307 kts | 150° |
| 2026-05-08 00:54 | 42.92885 | -76.05827 | 13339 ft | 313 kts | 151° |
| 2026-05-08 00:55 | 42.91085 | -76.04125 | 14544 ft | 319 kts | 152° |
| 2026-05-08 00:55 | 42.89269 | -76.02409 | 15716 ft | 323 kts | 152° |
| 2026-05-08 00:55 | 42.87412 | -76.00657 | 16816 ft | 328 kts | 152° |
| 2026-05-08 00:55 | 42.85541 | -75.98893 | 17895 ft | 331 kts | 152° |
| 2026-05-08 00:56 | 42.83633 | -75.97096 | 18929 ft | 335 kts | 153° |
| 2026-05-08 00:56 | 42.81695 | -75.95274 | 19883 ft | 339 kts | 153° |
| 2026-05-08 00:56 | 42.79739 | -75.93437 | 20731 ft | 345 kts | 153° |
| 2026-05-08 00:56 | 42.77738 | -75.91564 | 21297 ft | 358 kts | 154° |
| 2026-05-08 00:57 | 42.75609 | -75.89583 | 21554 ft | 379 kts | 154° |
| 2026-05-08 00:57 | 42.73392 | -75.87512 | 22083 ft | 390 kts | 153° |
| 2026-05-08 00:57 | 42.71122 | -75.85386 | 22748 ft | 395 kts | 154° |
| 2026-05-08 00:57 | 42.68871 | -75.83279 | 23456 ft | 399 kts | 154° |
| 2026-05-08 00:58 | 42.66561 | -75.81118 | 24139 ft | 402 kts | 155° |
| 2026-05-08 00:58 | 42.64252 | -75.78961 | 24730 ft | 406 kts | 155° |
| 2026-05-08 00:58 | 42.61895 | -75.76765 | 25232 ft | 412 kts | 155° |
| 2026-05-08 00:58 | 42.59438 | -75.74783 | 25767 ft | 402 kts | 167° |
| 2026-05-08 00:59 | 42.56819 | -75.73811 | 26256 ft | 384 kts | 183° |
| 2026-05-08 00:59 | 42.54188 | -75.73871 | 26707 ft | 369 kts | 198° |
| 2026-05-08 00:59 | 42.51696 | -75.74654 | 27147 ft | 366 kts | 204° |
| 2026-05-08 00:59 | 42.49243 | -75.75539 | 27605 ft | 369 kts | 204° |
| 2026-05-08 01:00 | 42.46754 | -75.76428 | 28056 ft | 371 kts | 205° |
| 2026-05-08 01:00 | 42.44235 | -75.77326 | 28538 ft | 371 kts | 205° |
| 2026-05-08 01:00 | 42.41722 | -75.78220 | 28893 ft | 373 kts | 205° |
| 2026-05-08 01:00 | 42.39183 | -75.79127 | 29246 ft | 377 kts | 205° |
| 2026-05-08 01:01 | 42.36610 | -75.80044 | 29592 ft | 380 kts | 205° |
| 2026-05-08 01:01 | 42.34033 | -75.80959 | 29990 ft | 381 kts | 206° |
| 2026-05-08 01:01 | 42.31460 | -75.81873 | 30297 ft | 385 kts | 206° |
| 2026-05-08 01:01 | 42.28846 | -75.82802 | 30590 ft | 387 kts | 205° |
| 2026-05-08 01:02 | 42.26207 | -75.83738 | 30866 ft | 391 kts | 206° |
| 2026-05-08 01:02 | 42.23543 | -75.84682 | 31116 ft | 394 kts | 205° |
| 2026-05-08 01:02 | 42.20861 | -75.85632 | 31367 ft | 396 kts | 205° |
| 2026-05-08 01:02 | 42.18198 | -75.86572 | 31604 ft | 399 kts | 205° |
| 2026-05-08 01:03 | 42.15487 | -75.87531 | 31763 ft | 404 kts | 205° |
| 2026-05-08 01:03 | 42.12732 | -75.88504 | 31958 ft | 406 kts | 205° |
| 2026-05-08 01:03 | 42.09957 | -75.89481 | 32125 ft | 409 kts | 205° |
| 2026-05-08 01:03 | 42.07163 | -75.90465 | 32324 ft | 411 kts | 205° |
| 2026-05-08 01:04 | 42.04365 | -75.91449 | 32513 ft | 413 kts | 205° |
| 2026-05-08 01:04 | 42.01569 | -75.92432 | 32676 ft | 415 kts | 205° |
| 2026-05-08 01:04 | 41.98750 | -75.93422 | 32803 ft | 417 kts | 205° |
| 2026-05-08 01:04 | 41.95907 | -75.94418 | 32968 ft | 419 kts | 205° |
| 2026-05-08 01:05 | 41.93089 | -75.95407 | 33066 ft | 422 kts | 205° |
| 2026-05-08 01:05 | 41.90223 | -75.96410 | 33225 ft | 423 kts | 205° |
| 2026-05-08 01:05 | 41.87336 | -75.97419 | 33369 ft | 424 kts | 204° |
| 2026-05-08 01:05 | 41.84502 | -75.98408 | 33519 ft | 425 kts | 204° |
| 2026-05-08 01:06 | 41.81599 | -75.99421 | 33712 ft | 425 kts | 204° |
| 2026-05-08 01:06 | 41.78740 | -76.00417 | 33935 ft | 423 kts | 204° |
| 2026-05-08 01:06 | 41.75872 | -76.01413 | 34200 ft | 421 kts | 204° |
| 2026-05-08 01:06 | 41.73031 | -76.02400 | 34442 ft | 419 kts | 204° |
| 2026-05-08 01:07 | 41.70208 | -76.03381 | 34655 ft | 419 kts | 204° |
| 2026-05-08 01:07 | 41.67369 | -76.04368 | 34835 ft | 419 kts | 204° |
| 2026-05-08 01:07 | 41.64543 | -76.05349 | 35009 ft | 419 kts | 204° |
| 2026-05-08 01:07 | 41.61697 | -76.06337 | 35166 ft | 419 kts | 204° |
| 2026-05-08 01:08 | 41.58865 | -76.07318 | 35335 ft | 419 kts | 204° |
| 2026-05-08 01:08 | 41.56062 | -76.08289 | 35500 ft | 419 kts | 204° |
| 2026-05-08 01:08 | 41.53228 | -76.09270 | 35666 ft | 418 kts | 204° |
| 2026-05-08 01:08 | 41.50417 | -76.10240 | 35835 ft | 417 kts | 204° |
| 2026-05-08 01:09 | 41.47585 | -76.11219 | 35985 ft | 417 kts | 204° |
| 2026-05-08 01:09 | 41.44774 | -76.12189 | 36109 ft | 418 kts | 205° |
| 2026-05-08 01:09 | 41.41979 | -76.13153 | 36236 ft | 418 kts | 204° |
| 2026-05-08 01:09 | 41.39177 | -76.14118 | 36351 ft | 418 kts | 205° |
| 2026-05-08 01:10 | 41.36339 | -76.15095 | 36473 ft | 418 kts | 204° |
| 2026-05-08 01:10 | 41.33518 | -76.16065 | 36608 ft | 418 kts | 205° |
| 2026-05-08 01:10 | 41.30712 | -76.17029 | 36719 ft | 418 kts | 205° |
| 2026-05-08 01:11 | 41.25030 | -76.18979 | 36909 ft | 419 kts | 204° |
| 2026-05-08 01:11 | 41.19407 | -76.20914 | 37121 ft | 417 kts | 205° |
| 2026-05-08 01:11 | 41.16705 | -76.22163 | 37246 ft | 408 kts | 211° |
| 2026-05-08 01:12 | 41.14077 | -76.23576 | 37309 ft | 408 kts | 211° |
| 2026-05-08 01:12 | 41.11424 | -76.24995 | 37418 ft | 408 kts | 211° |
| 2026-05-08 01:12 | 41.08801 | -76.26395 | 37516 ft | 408 kts | 211° |
| 2026-05-08 01:13 | 41.03490 | -76.29230 | 37612 ft | 409 kts | 212° |
| 2026-05-08 01:13 | 41.00866 | -76.30626 | 37725 ft | 408 kts | 211° |
| 2026-05-08 01:13 | 40.98238 | -76.32022 | 37858 ft | 406 kts | 211° |
| 2026-05-08 01:14 | 40.92931 | -76.34841 | 37933 ft | 408 kts | 212° |
| 2026-05-08 01:14 | 40.87658 | -76.37636 | 37995 ft | 408 kts | 212° |
| 2026-05-08 01:14 | 40.85027 | -76.39026 | 37869 ft | 406 kts | 212° |
| 2026-05-08 01:15 | 40.82386 | -76.40421 | 37725 ft | 405 kts | 211° |
| 2026-05-08 01:15 | 40.79784 | -76.41795 | 37511 ft | 405 kts | 212° |
| 2026-05-08 01:15 | 40.77150 | -76.43186 | 37233 ft | 407 kts | 212° |
| 2026-05-08 01:15 | 40.74492 | -76.44588 | 36995 ft | 408 kts | 212° |
| 2026-05-08 01:16 | 40.71849 | -76.45980 | 36756 ft | 408 kts | 212° |
| 2026-05-08 01:16 | 40.69216 | -76.47364 | 36557 ft | 408 kts | 212° |
| 2026-05-08 01:16 | 40.66560 | -76.48759 | 36347 ft | 408 kts | 212° |
| 2026-05-08 01:16 | 40.63924 | -76.50140 | 36196 ft | 407 kts | 212° |
| 2026-05-08 01:17 | 40.61247 | -76.51539 | 35758 ft | 407 kts | 212° |
| 2026-05-08 01:17 | 40.55978 | -76.54286 | 35306 ft | 408 kts | 212° |
| 2026-05-08 01:17 | 40.53325 | -76.55669 | 35092 ft | 409 kts | 212° |
| 2026-05-08 01:18 | 40.50656 | -76.57059 | 34895 ft | 410 kts | 212° |
| 2026-05-08 01:18 | 40.48008 | -76.58437 | 34744 ft | 409 kts | 212° |
| 2026-05-08 01:18 | 40.45348 | -76.59817 | 34616 ft | 409 kts | 212° |
| 2026-05-08 01:18 | 40.42704 | -76.61187 | 34429 ft | 410 kts | 212° |
| 2026-05-08 01:19 | 40.40029 | -76.62573 | 34222 ft | 411 kts | 212° |
| 2026-05-08 01:19 | 40.37387 | -76.63940 | 34056 ft | 410 kts | 212° |
| 2026-05-08 01:19 | 40.35057 | -76.65144 | 33897 ft | 410 kts | 212° |
| 2026-05-08 01:19 | 40.32383 | -76.66527 | 33689 ft | 411 kts | 212° |
| 2026-05-08 01:20 | 40.29714 | -76.67909 | 33467 ft | 412 kts | 212° |
| 2026-05-08 01:20 | 40.27087 | -76.69260 | 33236 ft | 403 kts | 212° |
| 2026-05-08 01:20 | 40.24588 | -76.70527 | 32629 ft | 395 kts | 212° |
| 2026-05-08 01:20 | 40.22042 | -76.71801 | 31817 ft | 389 kts | 212° |
| 2026-05-08 01:21 | 40.19502 | -76.73062 | 30917 ft | 384 kts | 212° |
| 2026-05-08 01:21 | 40.17045 | -76.74273 | 30003 ft | 381 kts | 212° |
| 2026-05-08 01:21 | 40.14573 | -76.75482 | 29052 ft | 375 kts | 212° |
| 2026-05-08 01:21 | 40.12136 | -76.76664 | 28081 ft | 370 kts | 211° |
| 2026-05-08 01:22 | 40.09743 | -76.77814 | 27149 ft | 364 kts | 211° |
| 2026-05-08 01:22 | 40.07390 | -76.78934 | 26227 ft | 358 kts | 211° |
| 2026-05-08 01:22 | 40.05090 | -76.80019 | 25241 ft | 355 kts | 211° |
| 2026-05-08 01:22 | 40.02764 | -76.81111 | 24259 ft | 351 kts | 211° |
| 2026-05-08 01:23 | 40.00477 | -76.82179 | 23294 ft | 347 kts | 210° |
| 2026-05-08 01:23 | 39.98233 | -76.83215 | 22381 ft | 342 kts | 210° |
| 2026-05-08 01:23 | 39.96012 | -76.84234 | 21420 ft | 339 kts | 210° |
| 2026-05-08 01:23 | 39.93806 | -76.85240 | 20518 ft | 333 kts | 209° |
| 2026-05-08 01:24 | 39.91650 | -76.86214 | 19621 ft | 327 kts | 208° |
| 2026-05-08 01:24 | 39.89534 | -76.87159 | 18841 ft | 319 kts | 208° |
| 2026-05-08 01:24 | 39.87431 | -76.88088 | 18019 ft | 314 kts | 208° |
| 2026-05-08 01:24 | 39.85406 | -76.88974 | 17211 ft | 310 kts | 208° |
| 2026-05-08 01:25 | 39.83368 | -76.89865 | 16292 ft | 311 kts | 207° |
| 2026-05-08 01:25 | 39.81318 | -76.90762 | 15414 ft | 310 kts | 206° |
| 2026-05-08 01:25 | 39.79282 | -76.91648 | 14792 ft | 300 kts | 206° |
| 2026-05-08 01:25 | 39.77320 | -76.92492 | 14447 ft | 299 kts | 207° |
| 2026-05-08 01:26 | 39.75702 | -76.93520 | 14181 ft | 290 kts | 223° |
| 2026-05-08 01:26 | 39.74390 | -76.95470 | 13642 ft | 270 kts | 246° |
| 2026-05-08 01:26 | 39.73795 | -76.97735 | 13241 ft | 263 kts | 256° |
| 2026-05-08 01:26 | 39.73301 | -77.00040 | 12771 ft | 261 kts | 256° |
| 2026-05-08 01:27 | 39.72815 | -77.02270 | 12382 ft | 258 kts | 256° |
| 2026-05-08 01:27 | 39.72321 | -77.04542 | 11947 ft | 258 kts | 255° |
| 2026-05-08 01:27 | 39.71833 | -77.06782 | 11426 ft | 259 kts | 256° |
| 2026-05-08 01:27 | 39.71345 | -77.09023 | 10971 ft | 258 kts | 256° |
| 2026-05-08 01:28 | 39.70857 | -77.11260 | 10467 ft | 259 kts | 256° |
| 2026-05-08 01:28 | 39.70363 | -77.13522 | 10065 ft | 256 kts | 256° |
| 2026-05-08 01:28 | 39.69877 | -77.15749 | 9951 ft | 257 kts | 256° |
| 2026-05-08 01:28 | 39.69491 | -77.17515 | 9965 ft | 258 kts | 256° |
| 2026-05-08 01:29 | 39.69002 | -77.19748 | 9973 ft | 259 kts | 256° |
| 2026-05-08 01:29 | 39.68431 | -77.21985 | 9965 ft | 260 kts | 246° |
| 2026-05-08 01:29 | 39.67323 | -77.23859 | 9862 ft | 268 kts | 228° |
| 2026-05-08 01:29 | 39.65951 | -77.25496 | 9729 ft | 264 kts | 227° |
| 2026-05-08 01:30 | 39.64591 | -77.27123 | 9643 ft | 268 kts | 227° |
| 2026-05-08 01:30 | 39.63220 | -77.28766 | 9486 ft | 266 kts | 227° |
| 2026-05-08 01:30 | 39.61850 | -77.30408 | 9385 ft | 268 kts | 227° |
| 2026-05-08 01:30 | 39.60480 | -77.32048 | 9255 ft | 268 kts | 227° |
| 2026-05-08 01:31 | 39.59096 | -77.33704 | 9127 ft | 267 kts | 227° |
| 2026-05-08 01:31 | 39.57721 | -77.35351 | 9009 ft | 268 kts | 227° |
| 2026-05-08 01:31 | 39.56302 | -77.36942 | 8980 ft | 269 kts | 225° |
| 2026-05-08 01:31 | 39.54861 | -77.38503 | 8989 ft | 269 kts | 225° |
| 2026-05-08 01:32 | 39.53438 | -77.40046 | 9000 ft | 269 kts | 225° |
| 2026-05-08 01:32 | 39.51984 | -77.41623 | 9004 ft | 270 kts | 225° |
| 2026-05-08 01:32 | 39.50547 | -77.43179 | 8985 ft | 270 kts | 225° |
| 2026-05-08 01:32 | 39.49081 | -77.44768 | 8986 ft | 271 kts | 225° |
| 2026-05-08 01:33 | 39.47653 | -77.46314 | 9003 ft | 271 kts | 225° |
| 2026-05-08 01:33 | 39.46197 | -77.47890 | 8997 ft | 272 kts | 225° |
| 2026-05-08 01:33 | 39.44739 | -77.49468 | 8999 ft | 271 kts | 225° |
| 2026-05-08 01:33 | 39.43294 | -77.51032 | 9006 ft | 271 kts | 225° |
| 2026-05-08 01:34 | 39.41849 | -77.52595 | 9009 ft | 272 kts | 225° |
| 2026-05-08 01:34 | 39.40383 | -77.54178 | 8986 ft | 270 kts | 225° |
| 2026-05-08 01:34 | 39.38933 | -77.55745 | 9019 ft | 272 kts | 225° |
| 2026-05-08 01:34 | 39.37489 | -77.57305 | 8996 ft | 272 kts | 225° |
| 2026-05-08 01:35 | 39.36036 | -77.58874 | 9022 ft | 273 kts | 225° |
| 2026-05-08 01:35 | 39.34568 | -77.60458 | 8980 ft | 271 kts | 225° |
| 2026-05-08 01:35 | 39.33121 | -77.62017 | 8969 ft | 271 kts | 225° |
| 2026-05-08 01:35 | 39.31661 | -77.63591 | 8989 ft | 272 kts | 225° |
| 2026-05-08 01:36 | 39.30202 | -77.65162 | 9000 ft | 273 kts | 224° |
| 2026-05-08 01:36 | 39.28737 | -77.66739 | 8996 ft | 274 kts | 224° |
| 2026-05-08 01:36 | 39.27263 | -77.68324 | 8984 ft | 274 kts | 224° |
| 2026-05-08 01:36 | 39.25812 | -77.69885 | 8986 ft | 274 kts | 224° |
| 2026-05-08 01:37 | 39.24347 | -77.71459 | 9003 ft | 273 kts | 224° |
| 2026-05-08 01:37 | 39.22863 | -77.73054 | 9004 ft | 274 kts | 224° |
| 2026-05-08 01:37 | 39.21393 | -77.74632 | 8985 ft | 274 kts | 224° |
| 2026-05-08 01:37 | 39.19923 | -77.76209 | 8975 ft | 274 kts | 224° |
| 2026-05-08 01:38 | 39.18457 | -77.77782 | 8978 ft | 275 kts | 224° |
| 2026-05-08 01:38 | 39.16962 | -77.79386 | 8592 ft | 279 kts | 224° |
| 2026-05-08 01:38 | 39.15482 | -77.80973 | 8016 ft | 281 kts | 224° |
| 2026-05-08 01:38 | 39.13981 | -77.82580 | 7380 ft | 276 kts | 224° |
| 2026-05-08 01:39 | 39.12515 | -77.84145 | 6909 ft | 268 kts | 224° |
| 2026-05-08 01:39 | 39.11122 | -77.85632 | 6456 ft | 259 kts | 224° |
| 2026-05-08 01:39 | 39.09736 | -77.87112 | 6006 ft | 251 kts | 224° |
| 2026-05-08 01:39 | 39.08399 | -77.88538 | 5646 ft | 249 kts | 225° |
| 2026-05-08 01:40 | 39.07079 | -77.89950 | 5279 ft | 248 kts | 224° |
| 2026-05-08 01:40 | 39.05735 | -77.91384 | 4900 ft | 248 kts | 225° |
| 2026-05-08 01:40 | 39.04416 | -77.92793 | 4515 ft | 247 kts | 225° |
| 2026-05-08 01:40 | 39.03099 | -77.94195 | 4146 ft | 245 kts | 225° |
| 2026-05-08 01:41 | 39.01798 | -77.95579 | 3992 ft | 233 kts | 225° |
| 2026-05-08 01:41 | 39.00579 | -77.96870 | 4005 ft | 223 kts | 226° |
| 2026-05-08 01:41 | 38.99371 | -77.98155 | 3996 ft | 225 kts | 225° |
| 2026-05-08 01:41 | 38.97982 | -77.99091 | 3989 ft | 235 kts | 195° |
| 2026-05-08 01:42 | 38.96332 | -77.98859 | 3997 ft | 243 kts | 156° |
| 2026-05-08 01:42 | 38.95061 | -77.97450 | 3990 ft | 245 kts | 119° |
| 2026-05-08 01:42 | 38.94486 | -77.95448 | 3985 ft | 241 kts | 102° |
| 2026-05-08 01:42 | 38.93994 | -77.93374 | 4148 ft | 239 kts | 101° |
| 2026-05-08 01:43 | 38.93667 | -77.91303 | 4144 ft | 235 kts | 97° |
| 2026-05-08 01:43 | 38.93342 | -77.89217 | 3784 ft | 237 kts | 97° |
| 2026-05-08 01:43 | 38.93019 | -77.87175 | 3468 ft | 236 kts | 97° |
| 2026-05-08 01:43 | 38.92688 | -77.85079 | 3120 ft | 237 kts | 98° |
| 2026-05-08 01:44 | 38.92364 | -77.83029 | 2994 ft | 232 kts | 98° |
| 2026-05-08 01:44 | 38.92043 | -77.80984 | 2990 ft | 234 kts | 98° |
| 2026-05-08 01:44 | 38.91722 | -77.78936 | 2994 ft | 234 kts | 97° |
| 2026-05-08 01:44 | 38.91399 | -77.76882 | 2987 ft | 234 kts | 97° |
| 2026-05-08 01:45 | 38.91078 | -77.74834 | 2992 ft | 234 kts | 97° |
| 2026-05-08 01:45 | 38.90754 | -77.72774 | 2990 ft | 234 kts | 97° |
| 2026-05-08 01:45 | 38.90434 | -77.70734 | 2993 ft | 234 kts | 97° |
| 2026-05-08 01:45 | 38.90122 | -77.68713 | 2917 ft | 226 kts | 98° |
| 2026-05-08 01:46 | 38.89824 | -77.66733 | 2539 ft | 228 kts | 98° |
| 2026-05-08 01:46 | 38.89520 | -77.64727 | 2214 ft | 228 kts | 103° |
| 2026-05-08 01:46 | 38.88885 | -77.62914 | 1752 ft | 222 kts | 127° |
| 2026-05-08 01:46 | 38.87692 | -77.61605 | 1656 ft | 257 kts | 154° |
| 2026-05-08 01:47 | 38.86051 | -77.60826 | 1895 ft | 228 kts | 167° |
| 2026-05-08 01:47 | 38.84470 | -77.60310 | 1885 ft | 239 kts | 166° |
| 2026-05-08 01:47 | 38.82996 | -77.59561 | 1715 ft | 214 kts | 154° |
| 2026-05-08 01:48 | 38.80378 | -77.57433 | 1681 ft | 231 kts | 148° |
| 2026-05-08 01:48 | 38.79136 | -77.56428 | 1596 ft | 189 kts | 150° |
| 2026-05-08 01:48 | 38.78112 | -77.55672 | 1539 ft | 150 kts | 153° |
| 2026-05-08 01:48 | 38.77217 | -77.55050 | 1249 ft | 138 kts | 153° |
| 2026-05-08 01:49 | 38.76413 | -77.54494 | 1058 ft | 125 kts | 153° |
| 2026-05-08 01:49 | 38.75656 | -77.53962 | 907 ft | 130 kts | 153° |
| 2026-05-08 01:49 | 38.74848 | -77.53387 | 696 ft | 134 kts | 152° |
| 2026-05-08 01:49 | 38.74082 | -77.52828 | 556 ft | 126 kts | 151° |
| 2026-05-08 01:50 | 38.73317 | -77.52268 | 404 ft | 123 kts | 152° |
| 2026-05-08 01:50 | 38.72574 | -77.51735 | 198 ft | 116 kts | 152° |
| 2026-05-08 01:50 | 38.71950 | -77.51289 | 179 ft | 91 kts | 149° |
| 2026-05-08 01:50 | 38.71546 | -77.50997 | 175 ft | 38 kts | 151° |
| 2026-05-08 01:51 | 38.71426 | -77.50882 | 174 ft | 15 kts | 89° |
| 2026-05-08 01:51 | 38.71475 | -77.50795 | 174 ft | 13 kts | 3° |
| 2026-05-08 01:51 | 38.71571 | -77.50857 | 174 ft | 17 kts | 329° |
| 2026-05-08 01:51 | 38.71682 | -77.50937 | 175 ft | 19 kts | 332° |
| 2026-05-08 01:52 | 38.71798 | -77.51019 | 176 ft | 20 kts | 330° |
| 2026-05-08 01:52 | 38.71929 | -77.51114 | 177 ft | 22 kts | 330° |
| 2026-05-08 01:52 | 38.72030 | -77.51186 | 179 ft | 14 kts | 331° |
| 2026-05-08 01:52 | 38.72120 | -77.51250 | 180 ft | 11 kts | 333° |
| 2026-05-08 01:53 | 38.72182 | -77.51196 | 181 ft | 10 kts | 12° |
| 2026-05-08 01:53 | 38.72247 | -77.51231 | 181 ft | 11 kts | 331° |
| 2026-05-08 01:53 | 38.72315 | -77.51248 | 183 ft | 11 kts | 49° |
| 2026-05-08 01:53 | 38.72373 | -77.51163 | 183 ft | 12 kts | 359° |
| 2026-05-08 01:54 | 38.72439 | -77.51183 | 184 ft | 9 kts | 36° |
| 2026-05-08 01:54 | 38.72469 | -77.51118 | 184 ft | 5 kts | 89° |
| 2026-05-08 01:54 | 38.72460 | -77.51111 | 184 ft | 0 kts | 202° |